sensor_id;sensor_type;location;lat;lon;timestamp;P1;durP1;ratioP1;P2;durP2;ratioP2
49730;SDS011;35622;52.008;5.426;2024-03-08T00:00:40;37.43;;;18.67;;
49730;SDS011;35622;52.008;5.426;2024-03-08T00:03:07;35.70;;;19.37;;
49730;SDS011;35622;52.008;5.426;2024-03-08T00:05:35;33.40;;;19.30;;
49730;SDS011;35622;52.008;5.426;2024-03-08T00:08:01;36.00;;;19.53;;
49730;SDS011;35622;52.008;5.426;2024-03-08T00:10:26;34.97;;;18.73;;
49730;SDS011;35622;52.008;5.426;2024-03-08T00:12:53;36.70;;;19.40;;
49730;SDS011;35622;52.008;5.426;2024-03-08T00:15:19;33.60;;;18.67;;
49730;SDS011;35622;52.008;5.426;2024-03-08T00:17:47;34.87;;;19.30;;
49730;SDS011;35622;52.008;5.426;2024-03-08T00:20:13;36.87;;;19.17;;
49730;SDS011;35622;52.008;5.426;2024-03-08T00:22:39;34.17;;;19.50;;
49730;SDS011;35622;52.008;5.426;2024-03-08T00:25:06;34.83;;;19.27;;
49730;SDS011;35622;52.008;5.426;2024-03-08T00:27:35;41.00;;;20.33;;
49730;SDS011;35622;52.008;5.426;2024-03-08T00:30:02;35.07;;;19.23;;
49730;SDS011;35622;52.008;5.426;2024-03-08T00:32:28;33.90;;;19.10;;
49730;SDS011;35622;52.008;5.426;2024-03-08T00:34:54;37.77;;;19.30;;
49730;SDS011;35622;52.008;5.426;2024-03-08T00:37:20;36.03;;;18.90;;
49730;SDS011;35622;52.008;5.426;2024-03-08T00:39:51;37.60;;;18.73;;
49730;SDS011;35622;52.008;5.426;2024-03-08T00:42:17;35.83;;;19.33;;
49730;SDS011;35622;52.008;5.426;2024-03-08T00:44:44;37.10;;;19.83;;
49730;SDS011;35622;52.008;5.426;2024-03-08T00:47:10;36.27;;;18.67;;
49730;SDS011;35622;52.008;5.426;2024-03-08T00:49:36;38.73;;;19.73;;
49730;SDS011;35622;52.008;5.426;2024-03-08T00:52:03;35.50;;;19.17;;
49730;SDS011;35622;52.008;5.426;2024-03-08T00:54:31;34.30;;;19.20;;
49730;SDS011;35622;52.008;5.426;2024-03-08T00:56:57;38.00;;;19.40;;
49730;SDS011;35622;52.008;5.426;2024-03-08T00:59:22;37.67;;;20.07;;
49730;SDS011;35622;52.008;5.426;2024-03-08T01:01:48;34.40;;;19.93;;
49730;SDS011;35622;52.008;5.426;2024-03-08T01:04:13;34.80;;;19.20;;
49730;SDS011;35622;52.008;5.426;2024-03-08T01:06:39;38.37;;;19.77;;
49730;SDS011;35622;52.008;5.426;2024-03-08T01:09:04;37.67;;;19.60;;
49730;SDS011;35622;52.008;5.426;2024-03-08T01:11:32;39.87;;;19.00;;
49730;SDS011;35622;52.008;5.426;2024-03-08T01:13:59;38.60;;;18.87;;
49730;SDS011;35622;52.008;5.426;2024-03-08T01:16:24;36.50;;;19.47;;
49730;SDS011;35622;52.008;5.426;2024-03-08T01:18:50;36.93;;;19.40;;
49730;SDS011;35622;52.008;5.426;2024-03-08T01:21:15;34.73;;;19.03;;
49730;SDS011;35622;52.008;5.426;2024-03-08T01:23:41;38.30;;;20.37;;
49730;SDS011;35622;52.008;5.426;2024-03-08T01:26:07;37.30;;;21.00;;
49730;SDS011;35622;52.008;5.426;2024-03-08T01:28:32;42.30;;;20.40;;
49730;SDS011;35622;52.008;5.426;2024-03-08T01:30:59;38.57;;;19.77;;
49730;SDS011;35622;52.008;5.426;2024-03-08T01:33:26;35.27;;;19.70;;
49730;SDS011;35622;52.008;5.426;2024-03-08T01:35:52;38.87;;;20.03;;
49730;SDS011;35622;52.008;5.426;2024-03-08T01:38:18;40.17;;;21.20;;
49730;SDS011;35622;52.008;5.426;2024-03-08T01:40:47;38.60;;;21.33;;
49730;SDS011;35622;52.008;5.426;2024-03-08T01:43:31;37.27;;;20.57;;
49730;SDS011;35622;52.008;5.426;2024-03-08T01:46:01;37.10;;;20.67;;
49730;SDS011;35622;52.008;5.426;2024-03-08T01:48:27;41.33;;;21.10;;
49730;SDS011;35622;52.008;5.426;2024-03-08T01:50:54;37.80;;;20.40;;
49730;SDS011;35622;52.008;5.426;2024-03-08T01:53:24;39.97;;;20.10;;
49730;SDS011;35622;52.008;5.426;2024-03-08T01:55:52;44.57;;;22.37;;
49730;SDS011;35622;52.008;5.426;2024-03-08T01:58:22;39.27;;;20.43;;
49730;SDS011;35622;52.008;5.426;2024-03-08T02:00:49;34.80;;;19.23;;
49730;SDS011;35622;52.008;5.426;2024-03-08T02:03:15;42.47;;;21.87;;
49730;SDS011;35622;52.008;5.426;2024-03-08T02:05:41;37.50;;;20.70;;
49730;SDS011;35622;52.008;5.426;2024-03-08T02:08:07;39.30;;;21.13;;
49730;SDS011;35622;52.008;5.426;2024-03-08T02:10:38;36.87;;;19.33;;
49730;SDS011;35622;52.008;5.426;2024-03-08T02:13:04;34.53;;;19.97;;
49730;SDS011;35622;52.008;5.426;2024-03-08T02:18:22;38.87;;;21.00;;
49730;SDS011;35622;52.008;5.426;2024-03-08T02:20:51;38.83;;;21.23;;
49730;SDS011;35622;52.008;5.426;2024-03-08T02:23:21;37.60;;;20.57;;
49730;SDS011;35622;52.008;5.426;2024-03-08T02:25:47;39.40;;;20.60;;
49730;SDS011;35622;52.008;5.426;2024-03-08T02:28:14;33.70;;;19.50;;
49730;SDS011;35622;52.008;5.426;2024-03-08T02:30:39;36.33;;;20.53;;
49730;SDS011;35622;52.008;5.426;2024-03-08T02:33:05;36.90;;;20.23;;
49730;SDS011;35622;52.008;5.426;2024-03-08T02:35:32;38.20;;;20.60;;
49730;SDS011;35622;52.008;5.426;2024-03-08T02:37:58;37.67;;;20.13;;
49730;SDS011;35622;52.008;5.426;2024-03-08T02:40:24;40.50;;;21.10;;
49730;SDS011;35622;52.008;5.426;2024-03-08T02:42:50;40.33;;;19.93;;
49730;SDS011;35622;52.008;5.426;2024-03-08T02:45:16;39.37;;;21.57;;
49730;SDS011;35622;52.008;5.426;2024-03-08T02:47:42;42.07;;;22.50;;
49730;SDS011;35622;52.008;5.426;2024-03-08T02:50:07;39.43;;;21.03;;
49730;SDS011;35622;52.008;5.426;2024-03-08T02:52:34;37.83;;;20.60;;
49730;SDS011;35622;52.008;5.426;2024-03-08T02:55:00;41.90;;;20.77;;
49730;SDS011;35622;52.008;5.426;2024-03-08T02:57:31;38.00;;;21.07;;
49730;SDS011;35622;52.008;5.426;2024-03-08T02:59:57;39.17;;;20.87;;
49730;SDS011;35622;52.008;5.426;2024-03-08T03:02:24;36.40;;;20.23;;
49730;SDS011;35622;52.008;5.426;2024-03-08T03:04:51;41.70;;;21.10;;
49730;SDS011;35622;52.008;5.426;2024-03-08T03:07:17;36.13;;;21.43;;
49730;SDS011;35622;52.008;5.426;2024-03-08T03:09:43;39.57;;;21.30;;
49730;SDS011;35622;52.008;5.426;2024-03-08T03:12:08;36.20;;;21.23;;
49730;SDS011;35622;52.008;5.426;2024-03-08T03:14:37;41.93;;;22.60;;
49730;SDS011;35622;52.008;5.426;2024-03-08T03:17:05;38.27;;;21.63;;
49730;SDS011;35622;52.008;5.426;2024-03-08T03:19:31;40.03;;;22.20;;
49730;SDS011;35622;52.008;5.426;2024-03-08T03:21:57;40.90;;;22.37;;
49730;SDS011;35622;52.008;5.426;2024-03-08T03:24:23;41.83;;;21.83;;
49730;SDS011;35622;52.008;5.426;2024-03-08T03:26:48;37.40;;;21.83;;
49730;SDS011;35622;52.008;5.426;2024-03-08T03:29:14;39.70;;;21.40;;
49730;SDS011;35622;52.008;5.426;2024-03-08T03:31:41;35.93;;;21.50;;
49730;SDS011;35622;52.008;5.426;2024-03-08T03:34:07;37.60;;;20.77;;
49730;SDS011;35622;52.008;5.426;2024-03-08T03:36:34;38.23;;;21.37;;
49730;SDS011;35622;52.008;5.426;2024-03-08T03:39:00;41.73;;;22.63;;
49730;SDS011;35622;52.008;5.426;2024-03-08T03:41:35;37.20;;;20.70;;
49730;SDS011;35622;52.008;5.426;2024-03-08T03:44:01;36.10;;;21.00;;
49730;SDS011;35622;52.008;5.426;2024-03-08T03:46:27;40.60;;;22.40;;
49730;SDS011;35622;52.008;5.426;2024-03-08T03:48:56;39.17;;;22.03;;
49730;SDS011;35622;52.008;5.426;2024-03-08T03:51:21;33.60;;;20.97;;
49730;SDS011;35622;52.008;5.426;2024-03-08T03:53:47;36.80;;;21.60;;
49730;SDS011;35622;52.008;5.426;2024-03-08T03:56:13;38.60;;;22.40;;
49730;SDS011;35622;52.008;5.426;2024-03-08T03:58:39;39.33;;;23.07;;
49730;SDS011;35622;52.008;5.426;2024-03-08T04:01:04;37.10;;;22.10;;
49730;SDS011;35622;52.008;5.426;2024-03-08T04:03:30;40.57;;;22.23;;
49730;SDS011;35622;52.008;5.426;2024-03-08T04:05:56;39.60;;;22.33;;
49730;SDS011;35622;52.008;5.426;2024-03-08T04:08:22;38.90;;;22.53;;
49730;SDS011;35622;52.008;5.426;2024-03-08T04:10:49;40.17;;;22.83;;
49730;SDS011;35622;52.008;5.426;2024-03-08T04:13:16;38.83;;;21.77;;
49730;SDS011;35622;52.008;5.426;2024-03-08T04:15:41;36.93;;;22.07;;
49730;SDS011;35622;52.008;5.426;2024-03-08T04:18:10;36.47;;;22.40;;
49730;SDS011;35622;52.008;5.426;2024-03-08T04:20:35;35.40;;;22.27;;
49730;SDS011;35622;52.008;5.426;2024-03-08T04:23:02;37.43;;;21.87;;
49730;SDS011;35622;52.008;5.426;2024-03-08T04:25:27;37.07;;;22.70;;
49730;SDS011;35622;52.008;5.426;2024-03-08T04:27:53;38.33;;;22.53;;
49730;SDS011;35622;52.008;5.426;2024-03-08T04:30:19;35.83;;;20.37;;
49730;SDS011;35622;52.008;5.426;2024-03-08T04:32:46;39.83;;;22.57;;
49730;SDS011;35622;52.008;5.426;2024-03-08T04:35:12;37.57;;;22.23;;
49730;SDS011;35622;52.008;5.426;2024-03-08T04:37:38;39.13;;;22.03;;
49730;SDS011;35622;52.008;5.426;2024-03-08T04:40:04;38.67;;;23.00;;
49730;SDS011;35622;52.008;5.426;2024-03-08T04:42:30;35.00;;;21.77;;
49730;SDS011;35622;52.008;5.426;2024-03-08T04:44:57;38.80;;;22.57;;
49730;SDS011;35622;52.008;5.426;2024-03-08T04:47:23;39.90;;;23.17;;
49730;SDS011;35622;52.008;5.426;2024-03-08T04:49:49;41.03;;;23.30;;
49730;SDS011;35622;52.008;5.426;2024-03-08T04:52:15;39.97;;;22.63;;
49730;SDS011;35622;52.008;5.426;2024-03-08T04:54:41;36.80;;;21.33;;
49730;SDS011;35622;52.008;5.426;2024-03-08T04:57:07;34.40;;;22.07;;
49730;SDS011;35622;52.008;5.426;2024-03-08T04:59:33;35.00;;;21.13;;
49730;SDS011;35622;52.008;5.426;2024-03-08T05:01:59;37.53;;;22.43;;
49730;SDS011;35622;52.008;5.426;2024-03-08T05:04:24;37.97;;;22.67;;
49730;SDS011;35622;52.008;5.426;2024-03-08T05:06:50;35.73;;;22.17;;
49730;SDS011;35622;52.008;5.426;2024-03-08T05:09:16;38.30;;;22.47;;
49730;SDS011;35622;52.008;5.426;2024-03-08T05:11:43;35.33;;;21.80;;
49730;SDS011;35622;52.008;5.426;2024-03-08T05:14:12;37.67;;;22.20;;
49730;SDS011;35622;52.008;5.426;2024-03-08T05:16:42;40.27;;;23.23;;
49730;SDS011;35622;52.008;5.426;2024-03-08T05:19:18;35.30;;;20.97;;
49730;SDS011;35622;52.008;5.426;2024-03-08T05:21:45;39.00;;;22.43;;
49730;SDS011;35622;52.008;5.426;2024-03-08T05:24:11;34.47;;;21.63;;
49730;SDS011;35622;52.008;5.426;2024-03-08T05:26:38;39.00;;;22.67;;
49730;SDS011;35622;52.008;5.426;2024-03-08T05:29:04;39.37;;;22.47;;
49730;SDS011;35622;52.008;5.426;2024-03-08T05:31:30;37.33;;;22.70;;
49730;SDS011;35622;52.008;5.426;2024-03-08T05:34:02;39.53;;;21.87;;
49730;SDS011;35622;52.008;5.426;2024-03-08T05:36:27;36.23;;;22.07;;
49730;SDS011;35622;52.008;5.426;2024-03-08T05:38:53;36.40;;;22.17;;
49730;SDS011;35622;52.008;5.426;2024-03-08T05:41:19;39.10;;;21.67;;
49730;SDS011;35622;52.008;5.426;2024-03-08T05:43:45;38.33;;;22.10;;
49730;SDS011;35622;52.008;5.426;2024-03-08T05:46:10;37.47;;;21.80;;
49730;SDS011;35622;52.008;5.426;2024-03-08T05:48:36;38.07;;;21.60;;
49730;SDS011;35622;52.008;5.426;2024-03-08T05:51:02;35.93;;;21.53;;
49730;SDS011;35622;52.008;5.426;2024-03-08T05:53:28;37.57;;;20.93;;
49730;SDS011;35622;52.008;5.426;2024-03-08T05:55:56;38.47;;;22.53;;
49730;SDS011;35622;52.008;5.426;2024-03-08T05:58:23;39.00;;;22.10;;
49730;SDS011;35622;52.008;5.426;2024-03-08T06:00:48;36.33;;;21.53;;
49730;SDS011;35622;52.008;5.426;2024-03-08T06:03:14;38.13;;;23.03;;
49730;SDS011;35622;52.008;5.426;2024-03-08T06:05:40;37.87;;;22.20;;
49730;SDS011;35622;52.008;5.426;2024-03-08T06:08:06;37.53;;;22.53;;
49730;SDS011;35622;52.008;5.426;2024-03-08T06:10:33;41.30;;;23.67;;
49730;SDS011;35622;52.008;5.426;2024-03-08T06:12:58;39.27;;;22.87;;
49730;SDS011;35622;52.008;5.426;2024-03-08T06:15:24;38.10;;;21.50;;
49730;SDS011;35622;52.008;5.426;2024-03-08T06:17:50;34.30;;;21.83;;
49730;SDS011;35622;52.008;5.426;2024-03-08T06:20:17;39.33;;;22.77;;
49730;SDS011;35622;52.008;5.426;2024-03-08T06:22:43;39.97;;;23.53;;
49730;SDS011;35622;52.008;5.426;2024-03-08T06:25:10;39.07;;;23.40;;
49730;SDS011;35622;52.008;5.426;2024-03-08T06:27:39;36.87;;;22.83;;
49730;SDS011;35622;52.008;5.426;2024-03-08T06:30:08;41.73;;;22.30;;
49730;SDS011;35622;52.008;5.426;2024-03-08T06:32:35;36.70;;;21.50;;
49730;SDS011;35622;52.008;5.426;2024-03-08T06:35:10;35.67;;;21.43;;
49730;SDS011;35622;52.008;5.426;2024-03-08T06:37:36;37.10;;;21.93;;
49730;SDS011;35622;52.008;5.426;2024-03-08T06:40:02;37.43;;;22.50;;
49730;SDS011;35622;52.008;5.426;2024-03-08T06:42:28;37.93;;;22.17;;
49730;SDS011;35622;52.008;5.426;2024-03-08T06:44:58;36.63;;;23.17;;
49730;SDS011;35622;52.008;5.426;2024-03-08T06:47:28;37.60;;;21.73;;
49730;SDS011;35622;52.008;5.426;2024-03-08T06:49:53;35.90;;;21.67;;
49730;SDS011;35622;52.008;5.426;2024-03-08T06:52:19;38.77;;;22.73;;
49730;SDS011;35622;52.008;5.426;2024-03-08T06:54:45;38.73;;;22.33;;
49730;SDS011;35622;52.008;5.426;2024-03-08T06:57:10;37.67;;;22.13;;
49730;SDS011;35622;52.008;5.426;2024-03-08T06:59:36;37.73;;;22.80;;
49730;SDS011;35622;52.008;5.426;2024-03-08T07:02:02;38.30;;;22.40;;
49730;SDS011;35622;52.008;5.426;2024-03-08T07:04:29;35.27;;;21.60;;
49730;SDS011;35622;52.008;5.426;2024-03-08T07:06:57;35.43;;;21.50;;
49730;SDS011;35622;52.008;5.426;2024-03-08T07:09:23;38.37;;;21.40;;
49730;SDS011;35622;52.008;5.426;2024-03-08T07:11:49;33.70;;;21.10;;
49730;SDS011;35622;52.008;5.426;2024-03-08T07:14:23;36.17;;;22.17;;
49730;SDS011;35622;52.008;5.426;2024-03-08T07:16:49;31.57;;;21.17;;
49730;SDS011;35622;52.008;5.426;2024-03-08T07:19:16;34.63;;;22.20;;
49730;SDS011;35622;52.008;5.426;2024-03-08T07:21:43;31.30;;;20.87;;
49730;SDS011;35622;52.008;5.426;2024-03-08T07:24:09;34.60;;;21.63;;
49730;SDS011;35622;52.008;5.426;2024-03-08T07:26:53;33.10;;;21.37;;
49730;SDS011;35622;52.008;5.426;2024-03-08T07:29:20;32.23;;;20.40;;
49730;SDS011;35622;52.008;5.426;2024-03-08T07:31:46;32.00;;;20.93;;
49730;SDS011;35622;52.008;5.426;2024-03-08T07:34:37;33.33;;;20.70;;
49730;SDS011;35622;52.008;5.426;2024-03-08T07:37:04;32.47;;;20.87;;
49730;SDS011;35622;52.008;5.426;2024-03-08T07:39:30;32.15;;;20.38;;
49730;SDS011;35622;52.008;5.426;2024-03-08T07:41:56;31.90;;;21.25;;
49730;SDS011;35622;52.008;5.426;2024-03-08T07:44:22;30.67;;;20.52;;
49730;SDS011;35622;52.008;5.426;2024-03-08T07:46:48;33.38;;;21.60;;
49730;SDS011;35622;52.008;5.426;2024-03-08T07:49:14;33.22;;;21.77;;
49730;SDS011;35622;52.008;5.426;2024-03-08T07:51:40;33.08;;;20.75;;
49730;SDS011;35622;52.008;5.426;2024-03-08T07:54:06;30.13;;;20.23;;
49730;SDS011;35622;52.008;5.426;2024-03-08T07:56:34;33.42;;;20.58;;
49730;SDS011;35622;52.008;5.426;2024-03-08T07:59:01;32.70;;;21.65;;
49730;SDS011;35622;52.008;5.426;2024-03-08T08:01:29;32.67;;;21.20;;
49730;SDS011;35622;52.008;5.426;2024-03-08T08:03:55;28.63;;;20.45;;
49730;SDS011;35622;52.008;5.426;2024-03-08T08:06:21;31.67;;;21.80;;
49730;SDS011;35622;52.008;5.426;2024-03-08T08:08:47;31.77;;;21.92;;
49730;SDS011;35622;52.008;5.426;2024-03-08T08:11:13;29.15;;;21.48;;
49730;SDS011;35622;52.008;5.426;2024-03-08T08:13:42;30.08;;;21.50;;
49730;SDS011;35622;52.008;5.426;2024-03-08T08:16:08;28.90;;;21.02;;
49730;SDS011;35622;52.008;5.426;2024-03-08T08:18:34;27.73;;;20.63;;
49730;SDS011;35622;52.008;5.426;2024-03-08T08:21:00;29.63;;;22.00;;
49730;SDS011;35622;52.008;5.426;2024-03-08T08:23:26;27.70;;;20.98;;
49730;SDS011;35622;52.008;5.426;2024-03-08T08:25:51;32.20;;;21.38;;
49730;SDS011;35622;52.008;5.426;2024-03-08T08:28:17;28.25;;;21.92;;
49730;SDS011;35622;52.008;5.426;2024-03-08T08:30:44;30.30;;;21.45;;
49730;SDS011;35622;52.008;5.426;2024-03-08T08:33:10;29.25;;;22.25;;
49730;SDS011;35622;52.008;5.426;2024-03-08T08:35:38;27.58;;;20.85;;
49730;SDS011;35622;52.008;5.426;2024-03-08T08:38:04;29.33;;;21.77;;
49730;SDS011;35622;52.008;5.426;2024-03-08T08:40:30;27.25;;;21.00;;
49730;SDS011;35622;52.008;5.426;2024-03-08T08:42:57;28.45;;;23.45;;
49730;SDS011;35622;52.008;5.426;2024-03-08T08:45:23;27.92;;;21.55;;
49730;SDS011;35622;52.008;5.426;2024-03-08T08:47:49;25.98;;;20.98;;
49730;SDS011;35622;52.008;5.426;2024-03-08T08:50:14;28.17;;;22.25;;
49730;SDS011;35622;52.008;5.426;2024-03-08T08:52:41;28.35;;;22.05;;
49730;SDS011;35622;52.008;5.426;2024-03-08T08:55:08;26.13;;;22.33;;
49730;SDS011;35622;52.008;5.426;2024-03-08T08:57:38;28.08;;;22.65;;
49730;SDS011;35622;52.008;5.426;2024-03-08T09:00:04;27.20;;;21.05;;
49730;SDS011;35622;52.008;5.426;2024-03-08T09:02:32;27.98;;;22.00;;
49730;SDS011;35622;52.008;5.426;2024-03-08T09:05:00;27.63;;;22.25;;
49730;SDS011;35622;52.008;5.426;2024-03-08T09:07:26;28.55;;;20.83;;
49730;SDS011;35622;52.008;5.426;2024-03-08T09:09:53;27.45;;;21.63;;
49730;SDS011;35622;52.008;5.426;2024-03-08T09:12:22;25.10;;;21.08;;
49730;SDS011;35622;52.008;5.426;2024-03-08T09:14:48;26.40;;;21.27;;
49730;SDS011;35622;52.008;5.426;2024-03-08T09:17:14;27.00;;;21.75;;
49730;SDS011;35622;52.008;5.426;2024-03-08T09:19:42;26.10;;;21.55;;
49730;SDS011;35622;52.008;5.426;2024-03-08T09:22:08;24.23;;;20.98;;
49730;SDS011;35622;52.008;5.426;2024-03-08T09:24:36;25.55;;;21.85;;
49730;SDS011;35622;52.008;5.426;2024-03-08T09:27:01;27.80;;;21.45;;
49730;SDS011;35622;52.008;5.426;2024-03-08T09:29:28;27.15;;;20.50;;
49730;SDS011;35622;52.008;5.426;2024-03-08T09:31:53;24.67;;;20.88;;
49730;SDS011;35622;52.008;5.426;2024-03-08T09:34:19;25.63;;;21.17;;
49730;SDS011;35622;52.008;5.426;2024-03-08T09:36:45;25.20;;;21.50;;
49730;SDS011;35622;52.008;5.426;2024-03-08T09:39:10;23.65;;;20.20;;
49730;SDS011;35622;52.008;5.426;2024-03-08T09:41:41;25.83;;;20.58;;
49730;SDS011;35622;52.008;5.426;2024-03-08T09:44:12;25.73;;;20.42;;
49730;SDS011;35622;52.008;5.426;2024-03-08T09:46:39;22.60;;;19.17;;
49730;SDS011;35622;52.008;5.426;2024-03-08T09:49:05;25.17;;;20.55;;
49730;SDS011;35622;52.008;5.426;2024-03-08T09:51:33;25.33;;;20.02;;
49730;SDS011;35622;52.008;5.426;2024-03-08T09:54:00;27.20;;;20.48;;
49730;SDS011;35622;52.008;5.426;2024-03-08T09:56:29;25.27;;;20.02;;
49730;SDS011;35622;52.008;5.426;2024-03-08T09:58:58;26.08;;;20.38;;
49730;SDS011;35622;52.008;5.426;2024-03-08T10:01:36;25.38;;;20.17;;
49730;SDS011;35622;52.008;5.426;2024-03-08T10:04:03;25.02;;;19.80;;
49730;SDS011;35622;52.008;5.426;2024-03-08T10:06:29;24.55;;;19.63;;
49730;SDS011;35622;52.008;5.426;2024-03-08T10:08:56;24.42;;;18.90;;
49730;SDS011;35622;52.008;5.426;2024-03-08T10:11:22;24.40;;;19.80;;
49730;SDS011;35622;52.008;5.426;2024-03-08T10:13:51;24.85;;;19.83;;
49730;SDS011;35622;52.008;5.426;2024-03-08T10:16:17;26.23;;;19.95;;
49730;SDS011;35622;52.008;5.426;2024-03-08T10:18:44;24.38;;;19.55;;
49730;SDS011;35622;52.008;5.426;2024-03-08T10:21:10;24.73;;;20.55;;
49730;SDS011;35622;52.008;5.426;2024-03-08T10:23:36;25.85;;;19.80;;
49730;SDS011;35622;52.008;5.426;2024-03-08T10:26:09;23.23;;;18.88;;
49730;SDS011;35622;52.008;5.426;2024-03-08T10:28:46;25.02;;;18.95;;
49730;SDS011;35622;52.008;5.426;2024-03-08T10:31:13;26.27;;;19.83;;
49730;SDS011;35622;52.008;5.426;2024-03-08T10:33:40;25.92;;;19.27;;
49730;SDS011;35622;52.008;5.426;2024-03-08T10:36:09;24.05;;;19.25;;
49730;SDS011;35622;52.008;5.426;2024-03-08T10:38:37;24.40;;;18.42;;
49730;SDS011;35622;52.008;5.426;2024-03-08T10:41:06;26.05;;;18.35;;
49730;SDS011;35622;52.008;5.426;2024-03-08T10:49:16;24.65;;;19.60;;
49730;SDS011;35622;52.008;5.426;2024-03-08T10:51:42;25.63;;;19.73;;
49730;SDS011;35622;52.008;5.426;2024-03-08T10:54:09;25.58;;;19.27;;
49730;SDS011;35622;52.008;5.426;2024-03-08T10:56:36;25.10;;;19.00;;
49730;SDS011;35622;52.008;5.426;2024-03-08T10:59:02;22.83;;;17.80;;
49730;SDS011;35622;52.008;5.426;2024-03-08T11:01:29;24.23;;;18.05;;
49730;SDS011;35622;52.008;5.426;2024-03-08T11:03:55;23.38;;;17.75;;
49730;SDS011;35622;52.008;5.426;2024-03-08T11:06:41;24.98;;;18.42;;
49730;SDS011;35622;52.008;5.426;2024-03-08T11:15:11;22.15;;;16.58;;
49730;SDS011;35622;52.008;5.426;2024-03-08T11:17:47;21.83;;;16.70;;
49730;SDS011;35622;52.008;5.426;2024-03-08T11:20:17;23.50;;;16.35;;
49730;SDS011;35622;52.008;5.426;2024-03-08T11:23:00;24.63;;;17.25;;
49730;SDS011;35622;52.008;5.426;2024-03-08T11:25:36;22.10;;;16.50;;
49730;SDS011;35622;52.008;5.426;2024-03-08T11:28:22;20.85;;;16.02;;
49730;SDS011;35622;52.008;5.426;2024-03-08T11:33:27;19.77;;;15.15;;
49730;SDS011;35622;52.008;5.426;2024-03-08T11:36:03;20.63;;;14.20;;
49730;SDS011;35622;52.008;5.426;2024-03-08T11:38:41;21.67;;;15.02;;
49730;SDS011;35622;52.008;5.426;2024-03-08T11:41:08;19.27;;;15.02;;
49730;SDS011;35622;52.008;5.426;2024-03-08T11:43:39;20.20;;;15.43;;
49730;SDS011;35622;52.008;5.426;2024-03-08T11:46:08;17.90;;;14.35;;
49730;SDS011;35622;52.008;5.426;2024-03-08T11:48:34;21.23;;;15.38;;
49730;SDS011;35622;52.008;5.426;2024-03-08T11:51:03;19.95;;;14.40;;
49730;SDS011;35622;52.008;5.426;2024-03-08T11:53:30;19.75;;;14.75;;
49730;SDS011;35622;52.008;5.426;2024-03-08T11:56:05;20.50;;;14.93;;
49730;SDS011;35622;52.008;5.426;2024-03-08T11:58:38;20.95;;;14.50;;
49730;SDS011;35622;52.008;5.426;2024-03-08T12:01:05;20.55;;;15.32;;
49730;SDS011;35622;52.008;5.426;2024-03-08T12:03:32;20.55;;;15.27;;
49730;SDS011;35622;52.008;5.426;2024-03-08T12:05:59;20.60;;;14.15;;
49730;SDS011;35622;52.008;5.426;2024-03-08T12:08:25;20.83;;;14.68;;
49730;SDS011;35622;52.008;5.426;2024-03-08T12:10:53;21.02;;;14.85;;
49730;SDS011;35622;52.008;5.426;2024-03-08T12:13:24;18.65;;;14.25;;
49730;SDS011;35622;52.008;5.426;2024-03-08T12:15:54;20.40;;;14.77;;
49730;SDS011;35622;52.008;5.426;2024-03-08T12:18:30;20.02;;;15.00;;
49730;SDS011;35622;52.008;5.426;2024-03-08T12:21:06;19.45;;;14.98;;
49730;SDS011;35622;52.008;5.426;2024-03-08T12:24:23;19.67;;;14.90;;
49730;SDS011;35622;52.008;5.426;2024-03-08T12:26:44;21.55;;;15.27;;
49730;SDS011;35622;52.008;5.426;2024-03-08T12:31:53;20.75;;;14.65;;
49730;SDS011;35622;52.008;5.426;2024-03-08T12:34:19;19.83;;;14.63;;
49730;SDS011;35622;52.008;5.426;2024-03-08T12:36:45;18.27;;;14.25;;
49730;SDS011;35622;52.008;5.426;2024-03-08T12:39:17;20.75;;;14.85;;
49730;SDS011;35622;52.008;5.426;2024-03-08T12:41:47;20.50;;;14.77;;
49730;SDS011;35622;52.008;5.426;2024-03-08T12:44:19;20.80;;;14.93;;
49730;SDS011;35622;52.008;5.426;2024-03-08T12:46:46;22.13;;;14.63;;
49730;SDS011;35622;52.008;5.426;2024-03-08T12:49:13;19.65;;;14.25;;
49730;SDS011;35622;52.008;5.426;2024-03-08T12:51:42;19.75;;;14.13;;
49730;SDS011;35622;52.008;5.426;2024-03-08T12:54:11;19.85;;;14.57;;
49730;SDS011;35622;52.008;5.426;2024-03-08T12:56:37;19.90;;;14.88;;
49730;SDS011;35622;52.008;5.426;2024-03-08T12:59:03;22.42;;;15.02;;
49730;SDS011;35622;52.008;5.426;2024-03-08T13:01:30;20.73;;;13.93;;
49730;SDS011;35622;52.008;5.426;2024-03-08T13:04:02;22.50;;;15.32;;
49730;SDS011;35622;52.008;5.426;2024-03-08T13:06:28;23.95;;;16.05;;
49730;SDS011;35622;52.008;5.426;2024-03-08T13:08:56;20.48;;;14.80;;
49730;SDS011;35622;52.008;5.426;2024-03-08T13:11:23;21.02;;;15.40;;
49730;SDS011;35622;52.008;5.426;2024-03-08T13:13:50;20.70;;;15.02;;
49730;SDS011;35622;52.008;5.426;2024-03-08T13:16:16;23.00;;;15.35;;
49730;SDS011;35622;52.008;5.426;2024-03-08T13:18:43;24.27;;;15.80;;
49730;SDS011;35622;52.008;5.426;2024-03-08T13:21:10;23.00;;;16.08;;
49730;SDS011;35622;52.008;5.426;2024-03-08T13:23:38;23.35;;;15.57;;
49730;SDS011;35622;52.008;5.426;2024-03-08T13:26:08;22.52;;;15.50;;
49730;SDS011;35622;52.008;5.426;2024-03-08T13:28:47;21.67;;;15.05;;
49730;SDS011;35622;52.008;5.426;2024-03-08T13:31:17;23.65;;;15.88;;
49730;SDS011;35622;52.008;5.426;2024-03-08T13:33:42;24.98;;;14.63;;
49730;SDS011;35622;52.008;5.426;2024-03-08T13:36:11;22.52;;;15.02;;
49730;SDS011;35622;52.008;5.426;2024-03-08T13:38:44;22.35;;;16.05;;
49730;SDS011;35622;52.008;5.426;2024-03-08T13:41:12;22.70;;;16.40;;
49730;SDS011;35622;52.008;5.426;2024-03-08T13:43:40;24.10;;;16.10;;
49730;SDS011;35622;52.008;5.426;2024-03-08T13:46:06;22.58;;;16.38;;
49730;SDS011;35622;52.008;5.426;2024-03-08T13:48:32;22.80;;;15.80;;
49730;SDS011;35622;52.008;5.426;2024-03-08T13:50:58;22.42;;;15.68;;
49730;SDS011;35622;52.008;5.426;2024-03-08T13:53:25;23.35;;;15.32;;
49730;SDS011;35622;52.008;5.426;2024-03-08T13:55:51;23.45;;;15.88;;
49730;SDS011;35622;52.008;5.426;2024-03-08T13:58:16;22.27;;;15.70;;
49730;SDS011;35622;52.008;5.426;2024-03-08T14:00:42;24.02;;;16.70;;
49730;SDS011;35622;52.008;5.426;2024-03-08T14:03:11;25.60;;;16.23;;
49730;SDS011;35622;52.008;5.426;2024-03-08T14:05:40;24.77;;;15.82;;
49730;SDS011;35622;52.008;5.426;2024-03-08T14:08:07;25.38;;;17.17;;
49730;SDS011;35622;52.008;5.426;2024-03-08T14:10:34;24.20;;;16.63;;
49730;SDS011;35622;52.008;5.426;2024-03-08T14:13:00;23.77;;;16.08;;
49730;SDS011;35622;52.008;5.426;2024-03-08T14:15:27;23.98;;;16.17;;
49730;SDS011;35622;52.008;5.426;2024-03-08T14:17:54;23.83;;;16.65;;
49730;SDS011;35622;52.008;5.426;2024-03-08T14:20:20;23.05;;;16.30;;
49730;SDS011;35622;52.008;5.426;2024-03-08T14:22:50;24.25;;;17.13;;
49730;SDS011;35622;52.008;5.426;2024-03-08T14:25:16;24.25;;;16.80;;
49730;SDS011;35622;52.008;5.426;2024-03-08T14:27:45;26.40;;;17.30;;
49730;SDS011;35622;52.008;5.426;2024-03-08T14:30:12;24.02;;;16.60;;
49730;SDS011;35622;52.008;5.426;2024-03-08T14:32:38;24.30;;;16.58;;
49730;SDS011;35622;52.008;5.426;2024-03-08T14:35:04;22.27;;;16.70;;
49730;SDS011;35622;52.008;5.426;2024-03-08T14:37:30;24.20;;;16.90;;
49730;SDS011;35622;52.008;5.426;2024-03-08T14:39:56;22.63;;;17.25;;
49730;SDS011;35622;52.008;5.426;2024-03-08T14:42:22;25.27;;;16.83;;